Time;durP1;ratioP1;P1;durP2;ratioP2;P2;SDS_P1;SDS_P2;PMS_P1;PMS_P2;Temp;Humidity;BMP_temperature;BMP_pressure;BME280_temperature;BME280_humidity;BME280_pressure;Samples;Min_cycle;Max_cycle;Signal;HPM_P1;HPM_P2
2023/07/25 00:00:58;;;;;;;9.98;4.00;;;;;;;;;;5064425;28;20061;-87
2023/07/25 00:03:24;;;;;;;9.20;3.53;;;;;;;;;;5069052;28;20160;-87
2023/07/25 00:05:51;;;;;;;12.35;4.07;;;;;;;;;;5051358;28;20041;-86
2023/07/25 00:08:18;;;;;;;10.85;4.35;;;;;;;;;;5053811;28;20068;-87
2023/07/25 00:10:45;;;;;;;13.25;4.28;;;;;;;;;;5065992;28;20049;-87
2023/07/25 00:13:12;;;;;;;7.55;4.00;;;;;;;;;;5045134;28;20052;-87
2023/07/25 00:15:39;;;;;;;10.05;4.18;;;;;;;;;;5063529;28;20137;-86
2023/07/25 00:18:06;;;;;;;7.57;3.88;;;;;;;;;;5062290;28;20071;-86
2023/07/25 00:20:32;;;;;;;10.85;4.65;;;;;;;;;;5046323;28;20134;-87
2023/07/25 00:22:59;;;;;;;13.18;4.57;;;;;;;;;;5060920;28;20135;-87
2023/07/25 00:25:26;;;;;;;7.85;4.38;;;;;;;;;;5061066;28;20057;-87
2023/07/25 00:27:54;;;;;;;13.00;4.85;;;;;;;;;;5060468;28;20181;-86
2023/07/25 00:30:21;;;;;;;8.73;4.45;;;;;;;;;;5043290;28;20117;-87
2023/07/25 00:32:48;;;;;;;13.75;5.05;;;;;;;;;;5044150;28;20037;-87
2023/07/25 00:35:15;;;;;;;13.65;4.40;;;;;;;;;;5065893;28;20438;-86
2023/07/25 00:37:41;;;;;;;11.10;4.38;;;;;;;;;;5044797;28;20041;-86
2023/07/25 00:40:11;;;;;;;11.25;4.13;;;;;;;;;;5042703;28;20049;-86
2023/07/25 00:42:40;;;;;;;13.70;5.13;;;;;;;;;;5059450;28;20135;-86
2023/07/25 00:45:07;;;;;;;15.75;4.82;;;;;;;;;;5042830;28;20056;-87
2023/07/25 00:47:36;;;;;;;15.65;4.43;;;;;;;;;;5061538;28;20136;-86
2023/07/25 00:50:03;;;;;;;21.38;5.15;;;;;;;;;;5044643;28;20261;-87
2023/07/25 00:52:30;;;;;;;12.25;4.80;;;;;;;;;;5062565;28;20069;-86
2023/07/25 00:54:56;;;;;;;10.73;5.05;;;;;;;;;;5044901;28;20365;-87
2023/07/25 00:57:23;;;;;;;10.70;4.30;;;;;;;;;;5045442;28;20052;-86
2023/07/25 00:59:53;;;;;;;10.35;5.55;;;;;;;;;;5046594;28;20049;-87
2023/07/25 01:02:20;;;;;;;13.05;5.60;;;;;;;;;;5044879;28;20384;-87
2023/07/25 01:04:46;;;;;;;11.93;5.57;;;;;;;;;;5063278;28;20390;-86
2023/07/25 01:07:13;;;;;;;13.05;5.68;;;;;;;;;;5045218;28;20053;-86
2023/07/25 01:09:46;;;;;;;6.63;4.70;;;;;;;;;;5062777;28;20107;-87
2023/07/25 01:12:13;;;;;;;10.60;5.32;;;;;;;;;;5045305;28;20113;-86
2023/07/25 01:14:41;;;;;;;21.35;5.28;;;;;;;;;;5044606;28;20071;-87
2023/07/25 01:17:10;;;;;;;10.23;5.72;;;;;;;;;;5043848;28;20413;-86
2023/07/25 01:19:38;;;;;;;12.18;5.45;;;;;;;;;;5059320;28;20045;-86
2023/07/25 01:22:08;;;;;;;11.27;5.45;;;;;;;;;;5042502;28;20060;-87
2023/07/25 01:24:54;;;;;;;11.90;5.25;;;;;;;;;;5045235;28;20075;-86
2023/07/25 01:27:21;;;;;;;12.25;5.00;;;;;;;;;;5046645;28;20056;-87
2023/07/25 01:29:48;;;;;;;14.52;5.05;;;;;;;;;;5046740;28;20092;-87
2023/07/25 01:32:14;;;;;;;12.52;5.32;;;;;;;;;;5045807;28;20049;-86
2023/07/25 01:34:41;;;;;;;13.10;5.55;;;;;;;;;;5047738;28;20045;-87
2023/07/25 01:37:11;;;;;;;14.73;5.90;;;;;;;;;;5049311;28;20064;-86
2023/07/25 01:39:43;;;;;;;16.98;5.88;;;;;;;;;;5047172;28;20116;-87
2023/07/25 01:42:10;;;;;;;14.38;5.65;;;;;;;;;;5048776;28;20113;-87
2023/07/25 01:44:36;;;;;;;15.18;6.10;;;;;;;;;;5047479;28;20044;-86
2023/07/25 01:47:03;;;;;;;13.40;5.45;;;;;;;;;;5047587;28;20200;-86
2023/07/25 01:49:30;;;;;;;17.65;6.63;;;;;;;;;;5048842;28;20075;-87
2023/07/25 01:51:57;;;;;;;9.32;5.25;;;;;;;;;;5047523;28;20061;-86
2023/07/25 01:54:24;;;;;;;10.18;5.88;;;;;;;;;;5051235;28;20056;-87
2023/07/25 01:56:51;;;;;;;27.52;5.93;;;;;;;;;;5049385;28;20053;-87
2023/07/25 01:59:18;;;;;;;17.77;5.53;;;;;;;;;;5049413;28;20056;-87
2023/07/25 02:01:44;;;;;;;11.27;5.38;;;;;;;;;;5047353;28;20063;-87
2023/07/25 02:04:14;;;;;;;11.32;6.05;;;;;;;;;;5064570;28;20049;-86
2023/07/25 02:06:41;;;;;;;21.88;7.03;;;;;;;;;;5064164;28;20075;-87
2023/07/25 02:09:08;;;;;;;17.60;6.30;;;;;;;;;;5047448;28;20040;-87
2023/07/25 02:11:34;;;;;;;16.08;6.60;;;;;;;;;;5063802;28;20053;-86
2023/07/25 02:14:02;;;;;;;11.82;5.78;;;;;;;;;;5062280;28;20137;-86
2023/07/25 02:16:29;;;;;;;16.15;5.85;;;;;;;;;;5045324;28;20049;-87
2023/07/25 02:19:02;;;;;;;23.95;5.97;;;;;;;;;;5044235;28;20147;-87
2023/07/25 02:21:35;;;;;;;11.52;5.75;;;;;;;;;;5043934;28;20071;-87
2023/07/25 02:24:01;;;;;;;12.30;5.93;;;;;;;;;;5045656;28;20063;-86
2023/07/25 02:26:28;;;;;;;11.80;5.03;;;;;;;;;;5046677;28;20353;-87
2023/07/25 02:28:55;;;;;;;10.43;5.72;;;;;;;;;;5045485;28;20132;-87
2023/07/25 02:31:24;;;;;;;12.90;5.03;;;;;;;;;;5046068;28;20382;-87
2023/07/25 02:33:51;;;;;;;14.48;5.32;;;;;;;;;;5045360;28;20080;-86
2023/07/25 02:36:17;;;;;;;12.82;5.80;;;;;;;;;;5068919;28;20076;-86
2023/07/25 02:38:44;;;;;;;14.10;5.28;;;;;;;;;;5055618;28;20044;-86
2023/07/25 02:41:11;;;;;;;13.02;5.05;;;;;;;;;;5064193;28;20045;-86
2023/07/25 02:43:38;;;;;;;12.30;5.20;;;;;;;;;;5052865;28;20056;-86
2023/07/25 02:46:05;;;;;;;11.25;5.38;;;;;;;;;;5056596;28;20412;-87
2023/07/25 02:48:33;;;;;;;18.88;5.40;;;;;;;;;;5055585;28;20079;-87
2023/07/25 02:51:00;;;;;;;21.40;7.13;;;;;;;;;;5072438;28;20067;-87
2023/07/25 02:53:27;;;;;;;10.38;4.57;;;;;;;;;;5063668;28;20059;-88
2023/07/25 02:55:57;;;;;;;11.40;6.07;;;;;;;;;;5045419;28;20389;-88
2023/07/25 02:58:24;;;;;;;14.48;5.88;;;;;;;;;;5063811;28;20384;-87
2023/07/25 03:00:51;;;;;;;14.70;5.47;;;;;;;;;;5045288;28;20070;-88
2023/07/25 03:03:20;;;;;;;11.40;5.03;;;;;;;;;;5063548;28;20382;-88
2023/07/25 03:05:50;;;;;;;9.70;4.95;;;;;;;;;;5044960;28;20067;-87
2023/07/25 03:08:17;;;;;;;24.83;5.57;;;;;;;;;;5061262;28;20049;-88
2023/07/25 03:10:43;;;;;;;11.90;5.10;;;;;;;;;;5063371;28;20053;-88
2023/07/25 03:13:10;;;;;;;11.25;5.50;;;;;;;;;;5048686;28;20057;-87
2023/07/25 03:15:37;;;;;;;15.15;5.53;;;;;;;;;;5045774;28;20067;-87
2023/07/25 03:18:10;;;;;;;16.13;5.75;;;;;;;;;;5043752;28;20087;-87
2023/07/25 03:20:38;;;;;;;19.13;5.38;;;;;;;;;;5046106;28;20588;-87
2023/07/25 03:23:05;;;;;;;18.08;5.70;;;;;;;;;;5046647;28;20463;-87
2023/07/25 03:25:32;;;;;;;9.70;4.68;;;;;;;;;;5063223;28;20080;-87
2023/07/25 03:27:58;;;;;;;12.13;4.80;;;;;;;;;;5061772;28;20044;-88
2023/07/25 03:30:25;;;;;;;15.90;5.60;;;;;;;;;;5046014;28;20170;-87
2023/07/25 03:32:55;;;;;;;13.68;5.20;;;;;;;;;;5042368;28;20390;-88
2023/07/25 03:35:25;;;;;;;11.73;5.65;;;;;;;;;;5041373;28;20044;-88
2023/07/25 03:37:51;;;;;;;12.13;5.15;;;;;;;;;;5060746;28;20104;-88
2023/07/25 03:40:21;;;;;;;10.57;5.90;;;;;;;;;;5042715;28;20113;-87
2023/07/25 03:42:48;;;;;;;17.33;5.80;;;;;;;;;;5058434;28;20049;-88
2023/07/25 03:45:15;;;;;;;17.52;6.03;;;;;;;;;;5059374;28;20052;-87
2023/07/25 03:47:42;;;;;;;15.60;5.63;;;;;;;;;;5042132;28;20139;-87
2023/07/25 03:50:09;;;;;;;16.33;5.78;;;;;;;;;;5062163;28;20152;-87
2023/07/25 03:52:45;;;;;;;14.48;7.70;;;;;;;;;;5045522;28;20091;-88
2023/07/25 03:55:12;;;;;;;15.25;6.40;;;;;;;;;;5055866;28;20108;-87
2023/07/25 03:57:39;;;;;;;12.63;6.45;;;;;;;;;;5072854;28;20068;-88
2023/07/25 04:00:17;;;;;;;18.23;6.57;;;;;;;;;;5057462;28;20172;-87
2023/07/25 04:02:49;;;;;;;16.90;5.82;;;;;;;;;;5073579;28;20068;-86
2023/07/25 04:05:37;;;;;;;11.52;5.72;;;;;;;;;;5059034;28;20076;-87
2023/07/25 04:08:09;;;;;;;16.88;5.68;;;;;;;;;;5072734;28;20041;-87
2023/07/25 04:10:44;;;;;;;14.88;5.78;;;;;;;;;;5054246;28;20048;-88
2023/07/25 04:13:11;;;;;;;15.88;6.30;;;;;;;;;;5053877;28;20071;-87
2023/07/25 04:15:45;;;;;;;13.98;5.65;;;;;;;;;;5071832;28;20056;-87
2023/07/25 04:18:21;;;;;;;15.63;7.28;;;;;;;;;;5072818;28;20110;-87
2023/07/25 04:21:02;;;;;;;13.77;6.22;;;;;;;;;;5073780;28;20028;-86
2023/07/25 04:23:42;;;;;;;20.98;6.13;;;;;;;;;;5057309;28;20083;-87
2023/07/25 04:26:11;;;;;;;12.05;5.85;;;;;;;;;;5052353;28;20080;-84
2023/07/25 04:28:54;;;;;;;13.18;6.25;;;;;;;;;;5053542;28;20075;-87
2023/07/25 04:31:36;;;;;;;15.02;6.07;;;;;;;;;;5070784;28;20021;-86
2023/07/25 04:34:17;;;;;;;20.50;5.90;;;;;;;;;;5073445;28;20045;-88
2023/07/25 04:43:41;;;;;;;18.00;6.03;;;;;;;;;;5031646;28;20045;-88
2023/07/25 04:46:08;;;;;;;12.40;6.03;;;;;;;;;;5029297;28;20080;-87
2023/07/25 04:48:36;;;;;;;14.77;6.72;;;;;;;;;;5030289;28;20033;-86
2023/07/25 04:51:17;;;;;;;11.23;5.95;;;;;;;;;;5029626;28;20367;-87
2023/07/25 04:54:07;;;;;;;14.82;7.18;;;;;;;;;;5031244;28;20037;-88
2023/07/25 04:56:46;;;;;;;9.93;4.07;;;;;;;;;;5031415;28;20109;-88
2023/07/25 04:59:31;;;;;;;10.48;3.92;;;;;;;;;;5033877;28;20053;-87
2023/07/25 05:02:12;;;;;;;10.98;3.47;;;;;;;;;;5032625;28;20125;-89
2023/07/25 05:04:41;;;;;;;8.38;3.10;;;;;;;;;;5035234;28;20085;-87
2023/07/25 05:07:21;;;;;;;7.85;2.50;;;;;;;;;;5044709;28;20049;-87
2023/07/25 05:10:03;;;;;;;6.07;2.00;;;;;;;;;;5059593;28;20052;-87
2023/07/25 05:12:31;;;;;;;8.50;2.20;;;;;;;;;;5076964;28;20036;-86
2023/07/25 05:15:16;;;;;;;5.35;1.98;;;;;;;;;;5058594;28;20049;-86
2023/07/25 05:17:45;;;;;;;10.27;2.08;;;;;;;;;;5057706;28;20110;-86
2023/07/25 05:20:28;;;;;;;9.43;2.10;;;;;;;;;;5075741;28;20044;-88
2023/07/25 05:23:10;;;;;;;8.93;1.80;;;;;;;;;;5059968;28;20049;-88
2023/07/25 05:25:44;;;;;;;12.60;2.15;;;;;;;;;;5074871;28;20041;-87
2023/07/25 05:28:26;;;;;;;8.13;1.77;;;;;;;;;;5075450;28;20045;-89
2023/07/25 05:31:23;;;;;;;8.65;1.77;;;;;;;;;;5059301;28;20040;-88
2023/07/25 05:34:05;;;;;;;5.88;2.08;;;;;;;;;;5074785;28;20125;-87
2023/07/25 05:36:47;;;;;;;5.40;2.08;;;;;;;;;;5074050;28;20253;-87
2023/07/25 05:39:27;;;;;;;10.10;2.10;;;;;;;;;;5073479;28;20049;-86
2023/07/25 05:42:13;;;;;;;8.27;1.85;;;;;;;;;;5073439;28;20056;-89
2023/07/25 05:44:53;;;;;;;7.65;1.85;;;;;;;;;;5055614;28;20067;-87
2023/07/25 05:47:33;;;;;;;8.50;1.70;;;;;;;;;;5060016;28;20029;-88
2023/07/25 05:50:17;;;;;;;7.82;1.50;;;;;;;;;;5057647;28;20049;-89
2023/07/25 05:52:58;;;;;;;6.00;1.30;;;;;;;;;;5055935;28;20025;-86
2023/07/25 05:55:50;;;;;;;7.38;1.80;;;;;;;;;;5070969;28;20104;-87
2023/07/25 05:58:30;;;;;;;6.47;1.60;;;;;;;;;;5054527;28;20128;-88
2023/07/25 06:01:14;;;;;;;8.85;1.58;;;;;;;;;;5067325;28;20063;-87
2023/07/25 06:04:00;;;;;;;8.23;1.75;;;;;;;;;;5058175;28;20041;-90
2023/07/25 06:06:44;;;;;;;7.32;1.45;;;;;;;;;;5071912;28;20045;-89
2023/07/25 06:09:25;;;;;;;9.25;1.38;;;;;;;;;;5053133;28;20105;-86
2023/07/25 06:11:56;;;;;;;4.20;1.38;;;;;;;;;;5069762;28;20057;-87
2023/07/25 06:14:29;;;;;;;5.93;2.65;;;;;;;;;;5070920;28;20060;-87
2023/07/25 06:17:22;;;;;;;7.97;1.42;;;;;;;;;;5070818;28;20045;-89
2023/07/25 06:20:03;;;;;;;5.47;1.83;;;;;;;;;;5055058;28;20037;-88
2023/07/25 06:22:45;;;;;;;9.05;2.00;;;;;;;;;;5070014;28;20080;-88
2023/07/25 06:25:28;;;;;;;5.13;1.25;;;;;;;;;;5068367;28;20086;-87
2023/07/25 06:28:14;;;;;;;7.18;1.50;;;;;;;;;;5054000;28;20036;-87
2023/07/25 06:31:03;;;;;;;6.45;1.50;;;;;;;;;;5069636;28;20063;-90
2023/07/25 06:33:45;;;;;;;4.13;1.48;;;;;;;;;;5057009;28;20148;-88
2023/07/25 06:36:29;;;;;;;5.22;1.40;;;;;;;;;;5054342;28;20037;-88
2023/07/25 06:39:14;;;;;;;8.90;1.50;;;;;;;;;;5069110;28;20115;-88
2023/07/25 06:41:54;;;;;;;8.32;1.48;;;;;;;;;;5054176;28;20075;-88
2023/07/25 06:44:35;;;;;;;11.30;1.80;;;;;;;;;;5055315;28;20029;-88
2023/07/25 06:47:16;;;;;;;7.20;1.10;;;;;;;;;;5069123;28;20033;-88
2023/07/25 06:49:59;;;;;;;9.48;1.42;;;;;;;;;;5067845;28;20049;-88
2023/07/25 06:52:44;;;;;;;5.82;1.60;;;;;;;;;;5052845;28;20096;-88
2023/07/25 06:55:25;;;;;;;8.27;1.38;;;;;;;;;;5052041;28;20056;-88
2023/07/25 06:58:06;;;;;;;4.30;1.30;;;;;;;;;;5067214;28;20075;-88
2023/07/25 07:00:50;;;;;;;9.75;1.65;;;;;;;;;;5068718;28;20114;-87
2023/07/25 07:03:31;;;;;;;8.63;1.85;;;;;;;;;;5053547;28;20114;-87
2023/07/25 07:06:15;;;;;;;3.72;1.27;;;;;;;;;;5071682;28;20067;-88
2023/07/25 07:11:29;;;;;;;5.32;1.40;;;;;;;;;;5047552;28;20091;-88
2023/07/25 07:14:11;;;;;;;7.50;2.25;;;;;;;;;;5033425;28;20152;-88
2023/07/25 07:16:53;;;;;;;4.18;1.60;;;;;;;;;;5036137;28;20206;-88
2023/07/25 07:19:38;;;;;;;15.45;2.33;;;;;;;;;;5048703;28;20111;-90
2023/07/25 07:25:59;;;;;;;7.18;2.13;;;;;;;;;;5050767;28;20040;-89
2023/07/25 07:28:41;;;;;;;10.40;2.08;;;;;;;;;;5036710;28;20132;-89
2023/07/25 07:31:27;;;;;;;8.70;1.77;;;;;;;;;;5051706;28;20031;-90
2023/07/25 07:34:42;;;;;;;12.98;2.30;;;;;;;;;;5035000;28;20055;-90
2023/07/25 07:37:40;;;;;;;10.57;2.53;;;;;;;;;;5047605;28;20050;-89
2023/07/25 07:40:32;;;;;;;6.25;1.70;;;;;;;;;;5052405;28;20088;-89
2023/07/25 07:43:16;;;;;;;6.18;1.83;;;;;;;;;;5038668;28;20049;-90
2023/07/25 07:46:00;;;;;;;9.60;1.90;;;;;;;;;;5053341;28;20044;-88
2023/07/25 07:55:29;;;;;;;11.27;2.55;;;;;;;;;;5072145;28;20059;-87
2023/07/25 08:07:43;;;;;;;15.35;3.13;;;;;;;;;;5230870;22;20057;-88
2023/07/25 08:10:28;;;;;;;7.72;2.20;;;;;;;;;;5075180;28;20041;-89
2023/07/25 08:21:06;;;;;;;4.75;1.02;;;;;;;;;;1320236;22;20446;-87
2023/07/25 08:23:48;;;;;;;2.50;0.90;;;;;;;;;;5059072;28;20025;-89
2023/07/25 08:32:49;;;;;;;4.93;1.50;;;;;;;;;;4672185;26;20269;-88
2023/07/25 08:35:32;;;;;;;3.60;0.80;;;;;;;;;;5038101;28;20059;-88
2023/07/25 08:38:12;;;;;;;2.88;1.17;;;;;;;;;;5037505;28;20030;-88
2023/07/25 08:41:21;;;;;;;5.10;1.48;;;;;;;;;;5036972;28;20037;-89
2023/07/25 08:44:06;;;;;;;1.70;0.80;;;;;;;;;;5052588;28;20037;-88
2023/07/25 08:47:01;;;;;;;3.15;1.50;;;;;;;;;;5053088;28;20040;-89
2023/07/25 08:49:45;;;;;;;3.97;1.35;;;;;;;;;;5432628;22;20098;-90
2023/07/25 08:52:34;;;;;;;6.40;1.15;;;;;;;;;;5070057;28;20029;-87
2023/07/25 08:55:36;;;;;;;3.50;1.15;;;;;;;;;;5054152;28;20235;-88
2023/07/25 08:58:20;;;;;;;7.57;1.35;;;;;;;;;;5054845;28;20029;-88
2023/07/25 09:01:38;;;;;;;8.05;1.80;;;;;;;;;;5070819;28;20052;-89
2023/07/25 09:04:21;;;;;;;4.32;1.10;;;;;;;;;;5068639;28;20115;-88
2023/07/25 09:07:05;;;;;;;5.63;1.55;;;;;;;;;;5055834;28;20073;-88
2023/07/25 09:10:07;;;;;;;6.30;1.40;;;;;;;;;;5055225;28;20039;-88
2023/07/25 09:12:50;;;;;;;5.65;1.15;;;;;;;;;;5057365;28;20025;-89
2023/07/25 09:15:31;;;;;;;1.98;0.73;;;;;;;;;;5072232;28;20056;-88
2023/07/25 09:18:20;;;;;;;2.83;0.73;;;;;;;;;;5034440;28;20033;-88
2023/07/25 09:21:05;;;;;;;1.92;0.57;;;;;;;;;;5046294;28;20065;-89
2023/07/25 09:23:52;;;;;;;4.13;1.00;;;;;;;;;;5048741;28;20069;-89
2023/07/25 09:26:33;;;;;;;4.28;0.98;;;;;;;;;;5289577;22;20787;-88
2023/07/25 09:29:27;;;;;;;7.72;0.80;;;;;;;;;;5050824;28;20060;-89
2023/07/25 09:38:58;;;;;;;4.50;0.82;;;;;;;;;;5052466;28;20042;-90
2023/07/25 09:41:42;;;;;;;5.53;0.88;;;;;;;;;;5044582;28;20037;-88
2023/07/25 09:44:26;;;;;;;8.25;1.00;;;;;;;;;;5049668;28;20041;-89
2023/07/25 09:47:45;;;;;;;9.88;1.58;;;;;;;;;;5055190;28;20037;-88
2023/07/25 09:50:46;;;;;;;3.50;0.70;;;;;;;;;;5121775;22;20125;-87
2023/07/25 09:53:31;;;;;;;8.38;1.10;;;;;;;;;;5076207;28;20040;-89
2023/07/25 09:56:14;;;;;;;4.90;1.00;;;;;;;;;;5059906;28;20051;-89
2023/07/25 09:58:55;;;;;;;4.53;0.80;;;;;;;;;;5053543;28;20113;-89
2023/07/25 10:02:03;;;;;;;7.75;1.00;;;;;;;;;;5054000;28;20045;-91
2023/07/25 10:04:47;;;;;;;4.47;0.85;;;;;;;;;;5327456;23;20037;-89
2023/07/25 10:07:32;;;;;;;3.83;0.80;;;;;;;;;;5168238;22;20048;-88
2023/07/25 10:10:15;;;;;;;2.10;0.90;;;;;;;;;;5075515;28;20032;-89
2023/07/25 10:13:00;;;;;;;5.13;1.20;;;;;;;;;;5059823;28;20033;-89
2023/07/25 10:15:44;;;;;;;3.35;0.50;;;;;;;;;;5076013;28;20047;-89
2023/07/25 10:18:35;;;;;;;5.55;0.73;;;;;;;;;;5060981;28;20033;-90
2023/07/25 10:27:00;;;;;;;3.63;0.82;;;;;;;;;;5335454;22;20040;-90
2023/07/25 10:30:11;;;;;;;6.75;1.00;;;;;;;;;;5059832;28;20056;-89
2023/07/25 10:36:38;;;;;;;8.55;1.85;;;;;;;;;;5076336;28;20047;-89
2023/07/25 10:39:34;;;;;;;5.68;1.80;;;;;;;;;;5060318;28;20040;-91
2023/07/25 10:46:04;;;;;;;8.45;1.40;;;;;;;;;;5076207;28;20048;-90
2023/07/25 10:54:21;;;;;;;4.03;1.10;;;;;;;;;;3196554;22;20052;-89
2023/07/25 10:57:13;;;;;;;6.47;1.42;;;;;;;;;;5088573;23;20049;-89
2023/07/25 11:00:20;;;;;;;9.05;1.88;;;;;;;;;;5076309;28;20067;-89
2023/07/25 11:03:21;;;;;;;10.30;1.87;;;;;;;;;;5558921;22;20073;-89
2023/07/25 11:06:13;;;;;;;15.73;1.80;;;;;;;;;;5056843;28;20033;-89
2023/07/25 11:11:55;;;;;;;8.10;1.27;;;;;;;;;;5453173;22;20859;-88
2023/07/25 11:14:45;;;;;;;7.85;2.25;;;;;;;;;;5053993;28;20045;-89
2023/07/25 11:55:11;;;;;;;6.38;1.10;;;;;;;;;;5019436;22;20053;-89
2023/07/25 12:26:28;;;;;;;3.03;0.88;;;;;;;;;;5318496;22;20041;-89
2023/07/25 12:29:30;;;;;;;3.28;0.68;;;;;;;;;;5073310;22;20125;-89
2023/07/25 12:32:16;;;;;;;6.05;1.10;;;;;;;;;;5053282;28;20033;-90
2023/07/25 12:35:15;;;;;;;2.40;0.80;;;;;;;;;;5053142;28;20072;-89
2023/07/25 12:38:29;;;;;;;6.60;0.82;;;;;;;;;;5138065;22;20044;-89
2023/07/25 12:41:15;;;;;;;3.03;0.63;;;;;;;;;;5073918;28;20029;-89
2023/07/25 12:46:43;;;;;;;2.45;0.50;;;;;;;;;;5497771;22;20083;-88
2023/07/25 12:52:06;;;;;;;3.60;0.75;;;;;;;;;;5285029;22;20045;-90
2023/07/25 12:54:58;;;;;;;5.65;0.50;;;;;;;;;;5074909;28;20037;-89
2023/07/25 13:05:51;;;;;;;2.60;0.52;;;;;;;;;;5467233;22;20045;-88
2023/07/25 13:08:50;;;;;;;6.40;0.60;;;;;;;;;;5058948;28;20049;-89
2023/07/25 13:14:36;;;;;;;5.38;0.75;;;;;;;;;;5610426;22;20060;-91
2023/07/25 13:22:33;;;;;;;4.63;0.95;;;;;;;;;;5598588;22;20048;-89
2023/07/25 13:25:14;;;;;;;8.73;0.90;;;;;;;;;;5472255;22;20049;-88
2023/07/25 13:27:58;;;;;;;8.75;1.00;;;;;;;;;;5042585;28;20025;-89
2023/07/25 13:30:59;;;;;;;2.95;0.88;;;;;;;;;;5154304;22;20300;-90
2023/07/25 13:33:47;;;;;;;5.28;1.17;;;;;;;;;;5076726;28;20045;-89
2023/07/25 13:36:52;;;;;;;5.07;0.90;;;;;;;;;;5077426;28;20144;-91
2023/07/25 13:40:05;;;;;;;5.55;0.75;;;;;;;;;;5073927;28;20036;-90
2023/07/25 13:45:50;;;;;;;7.40;0.80;;;;;;;;;;5093752;22;20067;-89
2023/07/25 13:51:09;;;;;;;2.33;0.70;;;;;;;;;;5158702;22;20049;-90
2023/07/25 13:53:50;;;;;;;7.47;0.95;;;;;;;;;;5185794;22;20052;-89
2023/07/25 13:56:33;;;;;;;5.68;0.70;;;;;;;;;;5062331;28;20029;-90
2023/07/25 13:59:37;;;;;;;3.53;0.88;;;;;;;;;;5076149;28;20059;-90
2023/07/25 14:02:41;;;;;;;2.58;0.80;;;;;;;;;;5282205;22;20072;-89
2023/07/25 14:10:55;;;;;;;3.03;0.60;;;;;;;;;;5449639;22;20048;-88
2023/07/25 14:13:58;;;;;;;1.08;0.45;;;;;;;;;;5075870;28;20041;-88
2023/07/25 14:16:39;;;;;;;1.50;0.70;;;;;;;;;;5076832;28;20020;-89
2023/07/25 14:23:01;;;;;;;4.10;0.30;;;;;;;;;;5777632;22;20979;-88
2023/07/25 14:25:50;;;;;;;3.75;0.60;;;;;;;;;;5965882;22;20044;-88
2023/07/25 14:28:54;;;;;;;2.80;0.50;;;;;;;;;;5054905;28;20037;-90
2023/07/25 14:32:06;;;;;;;4.32;0.73;;;;;;;;;;5041112;28;20072;-89
2023/07/25 14:34:56;;;;;;;10.13;1.23;;;;;;;;;;5040854;28;20029;-89
2023/07/25 14:38:05;;;;;;;3.13;0.60;;;;;;;;;;5040084;28;20025;-89
2023/07/25 14:41:12;;;;;;;3.67;0.98;;;;;;;;;;5039778;28;20029;-89
2023/07/25 14:44:05;;;;;;;6.57;0.80;;;;;;;;;;5040971;28;20025;-90
2023/07/25 14:47:17;;;;;;;3.58;0.90;;;;;;;;;;5055670;28;20033;-89
2023/07/25 14:50:04;;;;;;;10.35;1.35;;;;;;;;;;5056064;28;20029;-89
2023/07/25 14:58:18;;;;;;;2.67;0.73;;;;;;;;;;5903799;22;20052;-89
2023/07/25 15:01:05;;;;;;;4.75;0.47;;;;;;;;;;5074090;22;20117;-90
2023/07/25 15:04:09;;;;;;;3.75;0.82;;;;;;;;;;5040743;28;20049;-89
2023/07/25 15:10:35;;;;;;;5.45;0.80;;;;;;;;;;5057087;28;20037;-89
2023/07/25 15:13:18;;;;;;;6.85;0.70;;;;;;;;;;5118983;23;20084;-89
2023/07/25 15:16:27;;;;;;;2.40;0.47;;;;;;;;;;5041441;28;20108;-91
2023/07/25 15:19:15;;;;;;;5.03;0.73;;;;;;;;;;5416993;22;20072;-89
2023/07/25 15:21:57;;;;;;;2.38;0.73;;;;;;;;;;5199159;22;20054;-89
2023/07/25 15:25:18;;;;;;;2.45;1.08;;;;;;;;;;5016076;28;20038;-90
2023/07/25 15:28:19;;;;;;;3.42;0.60;;;;;;;;;;5000103;28;20034;-89
2023/07/25 15:50:22;;;;;;;2.28;0.60;;;;;;;;;;5053649;28;20045;-89
2023/07/25 15:56:40;;;;;;;1.23;0.50;;;;;;;;;;5092009;22;20109;-90
2023/07/25 15:59:24;;;;;;;1.30;0.40;;;;;;;;;;5059020;28;20507;-89
2023/07/25 16:02:06;;;;;;;2.67;0.50;;;;;;;;;;5059152;28;20217;-88
2023/07/25 16:07:43;;;;;;;1.92;0.73;;;;;;;;;;5173760;22;20041;-90
2023/07/25 16:34:07;;;;;;;4.10;1.07;;;;;;;;;;3653732;22;20300;-88
2023/07/25 16:36:49;;;;;;;1.58;0.80;;;;;;;;;;5052364;28;20072;-88
2023/07/25 16:39:35;;;;;;;2.70;0.88;;;;;;;;;;5053972;28;20053;-88
2023/07/25 16:42:42;;;;;;;3.60;0.90;;;;;;;;;;5055268;28;20032;-89
2023/07/25 16:45:24;;;;;;;4.45;0.93;;;;;;;;;;5174867;22;20056;-89
2023/07/25 16:48:20;;;;;;;3.25;0.77;;;;;;;;;;5058959;28;20049;-89
2023/07/25 16:56:09;;;;;;;4.90;0.80;;;;;;;;;;5077478;28;20044;-89
2023/07/25 16:58:53;;;;;;;3.25;0.90;;;;;;;;;;5078252;28;20033;-88
2023/07/25 17:01:36;;;;;;;4.78;0.90;;;;;;;;;;5078141;28;20033;-90
2023/07/25 17:04:27;;;;;;;1.75;0.70;;;;;;;;;;5078440;28;20021;-89
2023/07/25 17:07:07;;;;;;;5.28;0.98;;;;;;;;;;5077447;28;20067;-90
2023/07/25 17:09:48;;;;;;;2.90;0.60;;;;;;;;;;5077550;28;20052;-89
2023/07/25 17:12:49;;;;;;;4.35;1.00;;;;;;;;;;5078284;28;20048;-89
2023/07/25 17:15:32;;;;;;;3.97;0.90;;;;;;;;;;5077210;28;20079;-90
2023/07/25 17:21:39;;;;;;;3.85;0.90;;;;;;;;;;5078672;28;20254;-90
2023/07/25 17:24:21;;;;;;;3.65;0.98;;;;;;;;;;5077041;28;20064;-88
2023/07/25 17:27:08;;;;;;;3.17;1.00;;;;;;;;;;5077636;28;20028;-90
2023/07/25 17:30:16;;;;;;;4.32;1.10;;;;;;;;;;5076942;28;20040;-89
2023/07/25 17:33:05;;;;;;;5.70;0.95;;;;;;;;;;5077005;28;20025;-88
2023/07/25 17:35:48;;;;;;;5.88;0.98;;;;;;;;;;5696617;22;20045;-90
2023/07/25 17:38:32;;;;;;;4.32;0.90;;;;;;;;;;5076802;28;20040;-89
2023/07/25 17:41:39;;;;;;;3.13;1.02;;;;;;;;;;5078244;28;20068;-90
2023/07/25 17:44:21;;;;;;;9.80;1.00;;;;;;;;;;5628957;22;20082;-89
2023/07/25 17:47:05;;;;;;;5.78;1.10;;;;;;;;;;5077757;28;20068;-90
2023/07/25 17:49:48;;;;;;;2.70;0.85;;;;;;;;;;5056057;28;20035;-90
2023/07/25 17:56:12;;;;;;;7.40;1.88;;;;;;;;;;5078683;28;20067;-89
2023/07/25 18:14:58;;;;;;;8.70;2.53;;;;;;;;;;5077204;28;20253;-89
2023/07/25 18:17:50;;;;;;;5.97;1.70;;;;;;;;;;5077902;28;20045;-91
2023/07/25 18:24:20;;;;;;;13.40;1.60;;;;;;;;;;5077843;28;20035;-89
2023/07/25 18:27:09;;;;;;;9.63;1.30;;;;;;;;;;5078183;28;20033;-89
2023/07/25 18:32:28;;;;;;;4.65;1.45;;;;;;;;;;5187511;22;20057;-89
2023/07/25 18:35:11;;;;;;;6.25;1.30;;;;;;;;;;5150381;22;20045;-90
2023/07/25 18:38:17;;;;;;;6.90;1.23;;;;;;;;;;5056338;28;20033;-90
2023/07/25 18:46:10;;;;;;;4.32;0.90;;;;;;;;;;5463905;22;20037;-90
2023/07/25 18:51:32;;;;;;;7.90;1.30;;;;;;;;;;5695172;22;20048;-90
2023/07/25 18:54:13;;;;;;;5.57;1.30;;;;;;;;;;5076274;28;20052;-89
2023/07/25 18:57:29;;;;;;;6.05;1.65;;;;;;;;;;5061721;28;20032;-89
2023/07/25 19:00:16;;;;;;;4.90;1.20;;;;;;;;;;5062528;28;20049;-90
2023/07/25 19:03:15;;;;;;;3.95;1.27;;;;;;;;;;5060562;28;20067;-90
2023/07/25 19:06:03;;;;;;;2.67;1.45;;;;;;;;;;5061601;28;20092;-90
2023/07/25 19:09:08;;;;;;;5.68;1.23;;;;;;;;;;5076596;28;20024;-90
2023/07/25 19:11:49;;;;;;;2.15;1.27;;;;;;;;;;5061269;28;20021;-89
2023/07/25 19:17:25;;;;;;;5.97;1.42;;;;;;;;;;5227480;22;20048;-89
2023/07/25 19:20:07;;;;;;;3.88;1.08;;;;;;;;;;5061943;28;20058;-89
2023/07/25 19:43:45;;;;;;;6.80;1.40;;;;;;;;;;5076267;28;20024;-90
2023/07/25 19:50:10;;;;;;;6.13;1.52;;;;;;;;;;5077350;28;20043;-90
2023/07/25 19:52:50;;;;;;;3.88;1.00;;;;;;;;;;5060202;28;20036;-89
2023/07/25 19:55:32;;;;;;;7.18;1.48;;;;;;;;;;5347664;22;20037;-88
2023/07/25 19:58:17;;;;;;;5.05;1.35;;;;;;;;;;5061554;28;20036;-90
2023/07/25 20:01:04;;;;;;;5.53;1.73;;;;;;;;;;5061593;28;20027;-88
2023/07/25 20:03:59;;;;;;;5.03;1.40;;;;;;;;;;5076406;28;20028;-90
2023/07/25 20:06:42;;;;;;;5.68;1.48;;;;;;;;;;5076458;28;20025;-89
2023/07/25 20:09:22;;;;;;;3.72;1.50;;;;;;;;;;5471881;23;20037;-91
2023/07/25 20:12:09;;;;;;;4.28;1.48;;;;;;;;;;5075842;28;20059;-89
2023/07/25 20:15:06;;;;;;;2.80;1.10;;;;;;;;;;5076015;28;20036;-90
2023/07/25 20:17:47;;;;;;;9.57;1.38;;;;;;;;;;5060679;28;20033;-89
2023/07/25 20:23:50;;;;;;;6.53;1.77;;;;;;;;;;5076850;28;20089;-89
2023/07/25 20:26:31;;;;;;;6.18;2.08;;;;;;;;;;5061451;28;20040;-88
2023/07/25 20:29:18;;;;;;;8.15;1.30;;;;;;;;;;5060208;28;20090;-89
2023/07/25 20:32:02;;;;;;;2.83;1.10;;;;;;;;;;5106258;22;20071;-89
2023/07/25 20:34:44;;;;;;;6.18;1.35;;;;;;;;;;5061192;28;20036;-90
2023/07/25 20:37:51;;;;;;;4.18;1.17;;;;;;;;;;5061098;28;20028;-91
2023/07/25 20:40:35;;;;;;;6.68;1.50;;;;;;;;;;5060433;28;20097;-88
2023/07/25 20:43:32;;;;;;;4.97;1.30;;;;;;;;;;5076088;28;20104;-89
2023/07/25 20:46:13;;;;;;;4.85;1.27;;;;;;;;;;5075554;28;20058;-88
2023/07/25 20:48:46;;;;;;;6.25;1.45;;;;;;;;;;5060280;28;20100;-90
2023/07/25 20:51:30;;;;;;;5.18;1.60;;;;;;;;;;5060059;28;20079;-89
2023/07/25 20:54:12;;;;;;;9.93;1.42;;;;;;;;;;5059708;28;20087;-91
2023/07/25 20:56:55;;;;;;;4.53;1.30;;;;;;;;;;5051484;28;20036;-88
2023/07/25 20:59:22;;;;;;;6.15;1.85;;;;;;;;;;5057874;28;20044;-89
2023/07/25 21:01:49;;;;;;;3.33;1.25;;;;;;;;;;5038522;28;20045;-90
2023/07/25 21:04:16;;;;;;;2.22;1.30;;;;;;;;;;5040575;28;20056;-88
2023/07/25 21:07:11;;;;;;;11.10;1.88;;;;;;;;;;5053103;28;20033;-88
2023/07/25 21:09:45;;;;;;;7.32;1.85;;;;;;;;;;5059808;28;20048;-89